createdAt,value
2018-04-14T00:00:14.628Z,8.85
2018-04-14T00:01:14.564Z,8.88
2018-04-14T00:02:14.500Z,8.83
2018-04-14T00:03:14.439Z,8.85
2018-04-14T00:04:14.370Z,8.93
2018-04-14T00:05:14.309Z,8.88
2018-04-14T00:06:14.245Z,8.86
2018-04-14T00:07:14.179Z,8.93
2018-04-14T00:08:14.114Z,8.85
2018-04-14T00:09:14.052Z,8.85
2018-04-14T00:10:13.986Z,8.90
2018-04-14T00:11:13.961Z,8.89
2018-04-14T00:12:13.854Z,8.93
2018-04-14T00:13:13.794Z,9.01
2018-04-14T00:14:13.728Z,8.99
2018-04-14T00:15:13.665Z,9.03
2018-04-14T00:16:13.600Z,9.04
2018-04-14T00:17:13.537Z,8.85
2018-04-14T00:18:13.473Z,8.85
2018-04-14T00:19:13.411Z,8.88
2018-04-14T00:20:13.346Z,8.90
2018-04-14T00:21:13.279Z,8.92
2018-04-14T00:22:13.215Z,8.86
2018-04-14T00:23:13.153Z,8.92
2018-04-14T00:24:13.085Z,8.89
2018-04-14T00:25:13.027Z,8.90
2018-04-14T00:26:12.957Z,8.85
2018-04-14T00:27:12.893Z,8.83
2018-04-14T00:28:12.828Z,8.81
2018-04-14T00:29:12.764Z,8.77
2018-04-14T00:30:12.700Z,8.81
2018-04-14T00:31:12.635Z,8.81
2018-04-14T00:32:12.569Z,8.72
2018-04-14T00:33:12.504Z,8.77
2018-04-14T00:34:12.443Z,8.80
2018-04-14T00:35:12.381Z,8.83
2018-04-14T00:36:12.313Z,8.85
2018-04-14T00:37:12.249Z,8.85
2018-04-14T00:38:12.184Z,8.92
2018-04-14T00:39:12.118Z,8.89
2018-04-14T00:40:12.053Z,8.86
2018-04-14T00:41:11.990Z,8.86
2018-04-14T00:42:11.925Z,8.81
2018-04-14T00:43:11.860Z,8.85
2018-04-14T00:44:11.797Z,8.86
2018-04-14T00:45:11.732Z,8.86
2018-04-14T00:46:11.669Z,8.80
2018-04-14T00:47:11.600Z,8.74
2018-04-14T00:48:11.538Z,8.68
2018-04-14T00:49:11.476Z,8.67
2018-04-14T00:50:11.415Z,8.65
2018-04-14T00:51:11.348Z,8.67
2018-04-14T00:52:11.280Z,8.74
2018-04-14T00:53:11.221Z,8.74
2018-04-14T00:54:11.152Z,8.67
2018-04-14T00:55:11.087Z,8.67
2018-04-14T00:56:11.023Z,8.62
2018-04-14T00:57:10.961Z,8.57
2018-04-14T00:58:10.894Z,8.60
2018-04-14T00:59:10.827Z,8.57
2018-04-14T01:00:10.764Z,8.55
2018-04-14T01:01:10.701Z,8.59
2018-04-14T01:02:10.636Z,8.59
2018-04-14T01:03:10.570Z,8.63
2018-04-14T01:04:10.507Z,8.57
2018-04-14T01:05:10.443Z,8.50
2018-04-14T01:06:10.379Z,8.52
2018-04-14T01:07:10.315Z,8.52
2018-04-14T01:08:10.249Z,8.53
2018-04-14T01:09:10.186Z,8.50
2018-04-14T01:10:10.124Z,8.49
2018-04-14T01:11:10.056Z,8.55
2018-04-14T01:12:09.992Z,8.55
2018-04-14T01:13:09.929Z,8.42
2018-04-14T01:14:09.862Z,8.44
2018-04-14T01:15:09.797Z,8.52
2018-04-14T01:16:09.734Z,8.49
2018-04-14T01:17:09.668Z,8.56
2018-04-14T01:18:09.606Z,8.47
2018-04-14T01:19:09.540Z,8.47
2018-04-14T01:20:09.476Z,8.49
2018-04-14T01:21:09.411Z,8.55
2018-04-14T01:22:09.347Z,8.49
2018-04-14T01:23:09.282Z,8.47
2018-04-14T01:24:09.215Z,8.47
2018-04-14T01:25:09.154Z,8.44
2018-04-14T01:26:09.090Z,8.46
2018-04-14T01:27:09.027Z,8.52
2018-04-14T01:28:08.961Z,8.37
2018-04-14T01:29:08.894Z,8.37
2018-04-14T01:30:08.829Z,8.42
2018-04-14T01:31:08.766Z,8.37
2018-04-14T01:32:08.702Z,8.37
2018-04-14T01:33:08.637Z,8.50
2018-04-14T01:34:08.572Z,8.38
2018-04-14T01:35:08.509Z,8.44
2018-04-14T01:36:08.448Z,8.46
2018-04-14T01:37:08.378Z,8.42
2018-04-14T01:38:08.316Z,8.44
2018-04-14T01:39:08.248Z,8.50
2018-04-14T01:40:08.185Z,8.44
2018-04-14T01:41:08.120Z,8.42
2018-04-14T01:42:08.057Z,8.42
2018-04-14T01:43:07.994Z,8.37
2018-04-14T01:44:07.926Z,8.39
2018-04-14T01:45:07.859Z,8.35
2018-04-14T01:46:07.798Z,8.38
2018-04-14T01:47:07.731Z,8.35
2018-04-14T01:48:07.670Z,8.37
2018-04-14T01:49:07.603Z,8.35
2018-04-14T01:50:07.539Z,8.31
2018-04-14T01:51:07.473Z,8.29
2018-04-14T01:52:07.413Z,8.38
2018-04-14T01:53:07.347Z,8.41
2018-04-14T01:54:07.282Z,8.39
2018-04-14T01:55:07.218Z,8.38
2018-04-14T01:56:07.151Z,8.35
2018-04-14T01:57:07.086Z,8.37
2018-04-14T01:58:07.022Z,8.39
2018-04-14T01:59:06.959Z,8.37
2018-04-14T02:00:06.893Z,8.37
2018-04-14T02:01:06.829Z,8.39
2018-04-14T02:02:06.767Z,8.37
2018-04-14T02:03:06.698Z,8.42
2018-04-14T02:04:06.634Z,8.47
2018-04-14T02:05:06.570Z,8.39
2018-04-14T02:06:06.505Z,8.41
2018-04-14T02:07:06.440Z,8.34
2018-04-14T02:08:06.384Z,8.42
2018-04-14T02:09:06.312Z,8.37
2018-04-14T02:10:06.247Z,8.39
2018-04-14T02:11:06.181Z,8.41
2018-04-14T02:12:06.116Z,8.34
2018-04-14T02:13:06.051Z,8.41
2018-04-14T02:14:05.989Z,8.38
2018-04-14T02:15:05.922Z,8.44
2018-04-14T02:16:05.858Z,8.26
2018-04-14T02:17:05.793Z,8.38
2018-04-14T02:18:05.728Z,8.32
2018-04-14T02:19:05.663Z,8.29
2018-04-14T02:20:05.598Z,8.32
2018-04-14T02:21:05.534Z,8.29
2018-04-14T02:22:05.469Z,8.34
2018-04-14T02:23:05.403Z,8.46
2018-04-14T02:24:05.339Z,8.35
2018-04-14T02:25:05.276Z,8.34
2018-04-14T02:26:05.212Z,8.34
2018-04-14T02:27:05.146Z,8.32
2018-04-14T02:28:05.083Z,8.32
2018-04-14T02:29:05.021Z,8.32
2018-04-14T02:30:04.953Z,8.37
2018-04-14T02:31:04.892Z,8.29
2018-04-14T02:32:04.822Z,8.38
2018-04-14T02:33:04.757Z,8.34
2018-04-14T02:34:04.696Z,8.34
2018-04-14T02:35:04.630Z,8.35
2018-04-14T02:36:04.565Z,8.32
2018-04-14T02:37:04.504Z,8.29
2018-04-14T02:38:04.436Z,8.31
2018-04-14T02:39:04.369Z,8.29
2018-04-14T02:40:04.307Z,8.35
2018-04-14T02:41:04.243Z,8.34
2018-04-14T02:42:04.177Z,8.26
2018-04-14T02:43:04.112Z,8.26
2018-04-14T02:44:04.048Z,8.29
2018-04-14T02:45:03.983Z,8.32
2018-04-14T02:46:03.919Z,8.26
2018-04-14T02:47:03.852Z,8.26
2018-04-14T02:48:03.793Z,8.31
2018-04-14T02:49:03.723Z,8.28
2018-04-14T02:50:03.666Z,8.21
2018-04-14T02:51:03.595Z,8.17
2018-04-14T02:52:03.534Z,8.23
2018-04-14T02:53:03.465Z,8.19
2018-04-14T02:54:03.400Z,8.21
2018-04-14T02:55:03.335Z,8.24
2018-04-14T02:56:03.270Z,8.20
2018-04-14T02:57:03.208Z,8.12
2018-04-14T02:58:03.141Z,8.12
2018-04-14T02:59:03.075Z,8.05
2018-04-14T03:00:03.020Z,8.16
2018-04-14T03:01:02.948Z,8.12
2018-04-14T03:02:02.885Z,8.05
2018-04-14T03:03:02.821Z,8.05
2018-04-14T03:04:02.753Z,8.10
2018-04-14T03:05:02.689Z,8.04
2018-04-14T03:06:02.625Z,8.06
2018-04-14T03:07:02.559Z,8.10
2018-04-14T03:08:02.494Z,8.06
2018-04-14T03:09:02.429Z,7.99
2018-04-14T03:10:02.364Z,7.98
2018-04-14T03:11:02.298Z,8.02
2018-04-14T03:12:02.251Z,8.02
2018-04-14T03:13:02.170Z,8.01
2018-04-14T03:14:02.110Z,8.06
2018-04-14T03:15:02.043Z,7.99
2018-04-14T03:16:01.976Z,7.99
2018-04-14T03:17:01.912Z,7.99
2018-04-14T03:18:01.847Z,7.98
2018-04-14T03:19:01.780Z,7.94
2018-04-14T03:20:01.716Z,7.92
2018-04-14T03:21:01.651Z,7.95
2018-04-14T03:22:01.591Z,7.92
2018-04-14T03:23:01.523Z,7.88
2018-04-14T03:24:01.457Z,7.88
2018-04-14T03:25:01.394Z,7.78
2018-04-14T03:26:01.328Z,7.76
2018-04-14T03:27:01.263Z,7.76
2018-04-14T03:28:01.196Z,7.71
2018-04-14T03:29:01.133Z,7.64
2018-04-14T03:30:01.070Z,7.71
2018-04-14T03:31:01.004Z,7.60
2018-04-14T03:32:00.940Z,7.52
2018-04-14T03:33:00.875Z,7.52
2018-04-14T03:34:00.810Z,7.49
2018-04-14T03:35:00.743Z,7.49
2018-04-14T03:36:00.678Z,7.55
2018-04-14T03:37:00.619Z,7.68
2018-04-14T03:38:00.549Z,7.66
2018-04-14T03:39:00.483Z,7.71
2018-04-14T03:40:00.419Z,7.68
2018-04-14T03:41:00.356Z,7.69
2018-04-14T03:42:00.290Z,7.68
2018-04-14T03:43:00.225Z,7.73
2018-04-14T03:44:00.159Z,7.61
2018-04-14T03:45:00.099Z,7.64
2018-04-14T03:46:00.030Z,7.50
2018-04-14T03:46:59.973Z,7.47
2018-04-14T03:47:59.898Z,7.25
2018-04-14T03:48:59.835Z,7.28
2018-04-14T03:49:59.774Z,7.16
2018-04-14T03:50:59.707Z,7.18
2018-04-14T03:51:59.640Z,7.16
2018-04-14T03:52:59.574Z,7.13
2018-04-14T03:53:59.510Z,7.10
2018-04-14T03:54:59.445Z,7.04
2018-04-14T03:55:59.378Z,7.06
2018-04-14T03:56:59.314Z,7.08
2018-04-14T03:57:59.250Z,7.03
2018-04-14T03:58:59.185Z,7.00
2018-04-14T03:59:59.122Z,7.03
2018-04-14T04:00:59.055Z,7.06
2018-04-14T04:01:58.990Z,7.03
2018-04-14T04:02:58.925Z,7.10
2018-04-14T04:03:58.859Z,7.00
2018-04-14T04:04:58.794Z,7.01
2018-04-14T04:05:58.729Z,7.08
2018-04-14T04:06:58.669Z,7.03
2018-04-14T04:07:58.599Z,7.06
2018-04-14T04:08:58.531Z,7.04
2018-04-14T04:09:58.469Z,6.93
2018-04-14T04:10:58.403Z,6.93
2018-04-14T04:11:58.339Z,6.97
2018-04-14T04:12:58.274Z,6.85
2018-04-14T04:13:58.210Z,6.79
2018-04-14T04:14:58.143Z,6.75
2018-04-14T04:15:58.079Z,6.79
2018-04-14T04:16:58.015Z,6.78
2018-04-14T04:17:57.949Z,6.82
2018-04-14T04:18:57.882Z,6.83
2018-04-14T04:19:57.821Z,6.78
2018-04-14T04:20:57.753Z,6.71
2018-04-14T04:21:57.687Z,6.85
2018-04-14T04:22:57.620Z,6.85
2018-04-14T04:23:57.558Z,6.83
2018-04-14T04:24:57.492Z,6.85
2018-04-14T04:25:57.426Z,6.89
2018-04-14T04:26:57.365Z,6.83
2018-04-14T04:27:57.295Z,6.81
2018-04-14T04:28:57.231Z,6.79
2018-04-14T04:29:57.166Z,6.82
2018-04-14T04:30:57.099Z,6.79
2018-04-14T04:31:57.035Z,6.83
2018-04-14T04:32:56.971Z,6.97
2018-04-14T04:33:56.906Z,7.03
2018-04-14T04:34:56.839Z,7.06
2018-04-14T04:35:56.774Z,7.06
2018-04-14T04:36:56.709Z,7.06
2018-04-14T04:37:56.644Z,7.19
2018-04-14T04:38:56.578Z,7.22
2018-04-14T04:39:56.513Z,7.24
2018-04-14T04:40:56.449Z,7.25
2018-04-14T04:41:56.384Z,7.19
2018-04-14T04:42:56.316Z,7.29
2018-04-14T04:43:56.252Z,7.26
2018-04-14T04:44:56.186Z,7.25
2018-04-14T04:45:56.121Z,7.24
2018-04-14T04:46:56.055Z,7.22
2018-04-14T04:47:55.991Z,7.31
2018-04-14T04:48:55.971Z,7.25
2018-04-14T04:49:55.860Z,7.26
2018-04-14T04:50:55.794Z,7.25
2018-04-14T04:51:55.730Z,7.19
2018-04-14T04:52:55.665Z,7.28
2018-04-14T04:53:55.601Z,7.22
2018-04-14T04:54:55.535Z,7.31
2018-04-14T04:55:55.469Z,7.15
2018-04-14T04:56:55.403Z,7.16
2018-04-14T04:57:55.340Z,7.16
2018-04-14T04:58:55.272Z,7.08
2018-04-14T04:59:55.207Z,7.00
2018-04-14T05:00:55.142Z,6.99
2018-04-14T05:01:55.078Z,6.99
2018-04-14T05:02:55.010Z,6.92
2018-04-14T05:03:54.950Z,7.01
2018-04-14T05:04:54.879Z,7.03
2018-04-14T05:05:54.815Z,6.97
2018-04-14T05:06:54.751Z,7.03
2018-04-14T05:07:54.686Z,7.06
2018-04-14T05:08:54.621Z,6.93
2018-04-14T05:09:54.555Z,6.91
2018-04-14T05:10:54.491Z,6.89
2018-04-14T05:11:54.424Z,6.93
2018-04-14T05:12:54.359Z,6.91
2018-04-14T05:13:54.297Z,7.00
2018-04-14T05:14:54.231Z,7.00
2018-04-14T05:15:54.163Z,7.10
2018-04-14T05:16:54.097Z,7.13
2018-04-14T05:17:54.033Z,7.16
2018-04-14T05:18:53.966Z,7.15
2018-04-14T05:19:53.905Z,7.13
2018-04-14T05:20:53.838Z,7.18
2018-04-14T05:21:53.772Z,7.22
2018-04-14T05:22:53.706Z,7.24
2018-04-14T05:23:53.644Z,7.22
2018-04-14T05:24:53.575Z,7.22
2018-04-14T05:25:53.513Z,7.29
2018-04-14T05:26:53.446Z,7.37
2018-04-14T05:27:53.381Z,7.43
2018-04-14T05:28:53.317Z,7.40
2018-04-14T05:29:53.252Z,7.47
2018-04-14T05:30:53.185Z,7.44
2018-04-14T05:31:53.120Z,7.58
2018-04-14T05:32:53.057Z,7.61
2018-04-14T05:33:52.989Z,7.62
2018-04-14T05:34:52.924Z,7.68
2018-04-14T05:35:52.861Z,7.69
2018-04-14T05:36:52.793Z,7.74
2018-04-14T05:37:52.729Z,7.76
2018-04-14T05:38:52.664Z,7.74
2018-04-14T05:39:52.598Z,7.78
2018-04-14T05:40:52.539Z,7.80
2018-04-14T05:41:52.469Z,7.88
2018-04-14T05:42:52.400Z,7.86
2018-04-14T05:43:52.339Z,7.87
2018-04-14T05:44:52.278Z,7.86
2018-04-14T05:45:52.209Z,7.96
2018-04-14T05:46:52.142Z,7.99
2018-04-14T05:47:52.081Z,7.99
2018-04-14T05:48:52.014Z,7.95
2018-04-14T05:49:51.948Z,8.10
2018-04-14T05:50:51.934Z,8.09
2018-04-14T05:51:51.817Z,8.06
2018-04-14T05:52:51.754Z,8.14
2018-04-14T05:53:51.689Z,8.16
2018-04-14T05:54:51.622Z,8.16
2018-04-14T05:55:51.558Z,8.20
2018-04-14T05:56:51.494Z,8.21
2018-04-14T05:57:51.429Z,8.23
2018-04-14T05:58:51.365Z,8.23
2018-04-14T05:59:51.298Z,8.31
2018-04-14T06:00:51.235Z,8.35
2018-04-14T06:01:51.169Z,8.32
2018-04-14T06:02:51.104Z,8.44
2018-04-14T06:03:51.040Z,8.52
2018-04-14T06:04:50.983Z,8.42
2018-04-14T06:05:50.912Z,8.39
2018-04-14T06:06:50.846Z,8.46
2018-04-14T06:07:50.780Z,8.55
2018-04-14T06:08:50.714Z,8.57
2018-04-14T06:09:50.651Z,8.57
2018-04-14T06:10:50.595Z,8.59
2018-04-14T06:11:50.520Z,8.56
2018-04-14T06:12:50.456Z,8.59
2018-04-14T06:13:50.393Z,8.68
2018-04-14T06:14:50.329Z,8.72
2018-04-14T06:15:50.265Z,8.75
2018-04-14T06:16:50.199Z,8.75
2018-04-14T06:17:50.134Z,8.72
2018-04-14T06:18:50.070Z,8.71
2018-04-14T06:19:50.006Z,8.83
2018-04-14T06:20:49.943Z,8.92
2018-04-14T06:21:49.877Z,8.90
2018-04-14T06:22:49.810Z,8.88
2018-04-14T06:23:49.749Z,8.98
2018-04-14T06:24:49.681Z,8.99
2018-04-14T06:25:49.615Z,9.04
2018-04-14T06:26:49.552Z,9.11
2018-04-14T06:27:49.493Z,9.09
2018-04-14T06:28:49.424Z,9.14
2018-04-14T06:29:49.364Z,9.18
2018-04-14T06:30:49.293Z,9.19
2018-04-14T06:31:49.231Z,9.26
2018-04-14T06:32:49.168Z,9.32
2018-04-14T06:33:49.118Z,9.19
2018-04-14T06:34:49.036Z,9.29
2018-04-14T06:35:48.973Z,9.37
2018-04-14T06:36:48.910Z,9.41
2018-04-14T06:37:48.846Z,9.45
2018-04-14T06:38:48.780Z,9.50
2018-04-14T06:39:48.717Z,9.48
2018-04-14T06:40:48.655Z,9.52
2018-04-14T06:41:48.591Z,9.59
2018-04-14T06:42:48.522Z,9.59
2018-04-14T06:43:48.458Z,9.59
2018-04-14T06:44:48.396Z,9.72
2018-04-14T06:45:48.332Z,9.78
2018-04-14T06:46:48.267Z,9.83
2018-04-14T06:47:48.207Z,10.01
2018-04-14T06:48:48.140Z,10.02
2018-04-14T06:49:48.075Z,10.02
2018-04-14T06:50:48.010Z,10.09
2018-04-14T06:51:47.946Z,10.12
2018-04-14T06:52:47.882Z,10.10
2018-04-14T06:53:47.818Z,10.10
2018-04-14T06:54:47.757Z,10.21
2018-04-14T06:55:47.718Z,10.18
2018-04-14T06:56:47.627Z,10.23
2018-04-14T06:57:47.564Z,10.28
2018-04-14T06:58:47.498Z,10.27
2018-04-14T06:59:47.437Z,10.41
2018-04-14T07:00:47.371Z,10.45
2018-04-14T07:01:47.307Z,10.45
2018-04-14T07:02:47.245Z,10.55
2018-04-14T07:03:47.180Z,10.62
2018-04-14T07:04:47.116Z,10.58
2018-04-14T07:05:47.054Z,10.70
2018-04-14T07:06:46.987Z,10.83
2018-04-14T07:07:46.925Z,10.82
2018-04-14T07:08:46.864Z,10.94
2018-04-14T07:09:46.797Z,11.04
2018-04-14T07:10:46.735Z,11.12
2018-04-14T07:11:46.671Z,10.94
2018-04-14T07:12:46.606Z,11.03
2018-04-14T07:13:46.552Z,11.00
2018-04-14T07:14:46.483Z,11.03
2018-04-14T07:15:46.421Z,11.15
2018-04-14T07:16:46.352Z,11.23
2018-04-14T07:17:46.295Z,11.15
2018-04-14T07:18:46.226Z,11.31
2018-04-14T07:19:46.162Z,11.30
2018-04-14T07:20:46.155Z,11.27
2018-04-14T07:21:46.035Z,11.31
2018-04-14T07:22:45.970Z,11.31
2018-04-14T07:23:45.909Z,11.43
2018-04-14T07:24:45.844Z,11.45
2018-04-14T07:25:45.780Z,11.54
2018-04-14T07:26:45.730Z,11.56
2018-04-14T07:27:45.654Z,11.67
2018-04-14T07:28:45.592Z,11.69
2018-04-14T07:29:45.529Z,11.77
2018-04-14T07:30:45.465Z,11.77
2018-04-14T07:31:45.405Z,11.74
2018-04-14T07:32:45.338Z,11.88
2018-04-14T07:33:45.277Z,11.91
2018-04-14T07:34:45.214Z,11.95
2018-04-14T07:35:45.146Z,12.05
2018-04-14T07:36:45.087Z,12.00
2018-04-14T07:37:45.023Z,12.03
2018-04-14T07:38:44.958Z,12.18
2018-04-14T07:39:44.897Z,12.17
2018-04-14T07:40:44.833Z,12.13
2018-04-14T07:41:44.772Z,12.21
2018-04-14T07:42:44.708Z,12.18
2018-04-14T07:43:44.644Z,12.21
2018-04-14T07:44:44.581Z,12.21
2018-04-14T07:45:44.518Z,12.26
2018-04-14T07:46:44.455Z,12.17
2018-04-14T07:47:44.391Z,12.26
2018-04-14T07:48:44.330Z,12.15
2018-04-14T07:49:44.267Z,12.23
2018-04-14T07:50:44.203Z,12.26
2018-04-14T07:51:44.157Z,12.26
2018-04-14T07:52:44.078Z,12.25
2018-04-14T07:53:44.017Z,12.26
2018-04-14T07:54:43.952Z,12.32
2018-04-14T07:55:43.891Z,12.36
2018-04-14T07:56:43.828Z,12.41
2018-04-14T07:57:43.806Z,12.53
2018-04-14T07:58:43.707Z,12.62
2018-04-14T07:59:43.641Z,12.62
2018-04-14T08:00:43.577Z,12.80
2018-04-14T08:01:43.516Z,12.98
2018-04-14T08:02:43.453Z,13.11
2018-04-14T08:03:43.388Z,13.21
2018-04-14T08:04:43.330Z,13.24
2018-04-14T08:05:43.266Z,13.26
2018-04-14T08:06:43.202Z,13.24
2018-04-14T08:07:43.143Z,13.32
2018-04-14T08:08:43.079Z,13.38
2018-04-14T08:09:43.013Z,13.30
2018-04-14T08:10:42.953Z,13.24
2018-04-14T08:11:42.903Z,13.36
2018-04-14T08:12:42.829Z,13.30
2018-04-14T08:13:42.767Z,13.29
2018-04-14T08:14:42.702Z,13.16
2018-04-14T08:15:42.643Z,13.21
2018-04-14T08:16:42.579Z,13.32
2018-04-14T08:17:42.516Z,13.21
2018-04-14T08:18:42.453Z,13.27
2018-04-14T08:19:42.390Z,13.26
2018-04-14T08:20:42.331Z,13.35
2018-04-14T08:21:42.269Z,13.38
2018-04-14T08:22:42.204Z,13.38
2018-04-14T08:23:42.144Z,13.43
2018-04-14T08:24:42.090Z,13.55
2018-04-14T08:25:42.018Z,13.65
2018-04-14T08:26:41.958Z,13.71
2018-04-14T08:27:41.895Z,13.85
2018-04-14T08:28:41.832Z,13.98
2018-04-14T08:29:41.771Z,14.15
2018-04-14T08:30:41.708Z,14.22
2018-04-14T08:31:41.646Z,14.26
2018-04-14T08:32:41.584Z,14.38
2018-04-14T08:33:41.524Z,14.55
2018-04-14T08:34:41.476Z,14.49
2018-04-14T08:35:41.399Z,14.56
2018-04-14T08:36:41.335Z,14.63
2018-04-14T08:37:41.274Z,14.55
2018-04-14T08:38:41.213Z,14.53
2018-04-14T08:39:41.152Z,14.56
2018-04-14T08:40:41.090Z,14.53
2018-04-14T08:41:41.031Z,14.61
2018-04-14T08:42:40.967Z,14.66
2018-04-14T08:43:40.904Z,14.77
2018-04-14T08:44:40.844Z,14.90
2018-04-14T08:45:40.782Z,14.97
2018-04-14T08:46:40.721Z,15.07
2018-04-14T08:47:40.659Z,15.07
2018-04-14T08:48:40.600Z,15.12
2018-04-14T08:49:40.534Z,15.14
2018-04-14T08:50:40.475Z,15.12
2018-04-14T08:51:40.413Z,15.19
2018-04-14T08:52:40.352Z,15.10
2018-04-14T08:53:40.291Z,15.12
2018-04-14T08:54:40.229Z,15.17
2018-04-14T08:55:40.171Z,15.26
2018-04-14T08:56:40.111Z,15.26
2018-04-14T08:57:40.046Z,15.41
2018-04-14T08:58:39.985Z,15.38
2018-04-14T08:59:39.929Z,15.44
2018-04-14T09:00:39.864Z,15.48
2018-04-14T09:01:39.804Z,15.36
2018-04-14T09:02:39.742Z,15.27
2018-04-14T09:03:39.682Z,15.27
2018-04-14T09:04:39.623Z,15.26
2018-04-14T09:05:39.561Z,15.30
2018-04-14T09:06:39.499Z,15.35
2018-04-14T09:07:39.440Z,15.43
2018-04-14T09:08:39.388Z,15.41
2018-04-14T09:09:39.322Z,15.50
2018-04-14T09:10:39.254Z,15.56
2018-04-14T09:11:39.195Z,15.59
2018-04-14T09:12:39.134Z,15.77
2018-04-14T09:13:39.074Z,15.85
2018-04-14T09:14:39.013Z,16.00
2018-04-14T09:15:38.952Z,16.05
2018-04-14T09:16:38.899Z,16.06
2018-04-14T09:17:38.836Z,15.99
2018-04-14T09:18:38.768Z,15.90
2018-04-14T09:19:38.714Z,15.98
2018-04-14T09:20:38.653Z,16.00
2018-04-14T09:21:38.590Z,15.99
2018-04-14T09:22:38.534Z,15.98
2018-04-14T09:23:38.469Z,15.96
2018-04-14T09:24:38.409Z,15.87
2018-04-14T09:25:38.351Z,15.88
2018-04-14T09:26:38.288Z,15.85
2018-04-14T09:27:38.231Z,16.02
2018-04-14T09:28:38.177Z,15.99
2018-04-14T09:29:38.107Z,16.14
2018-04-14T09:30:38.048Z,16.26
2018-04-14T09:31:37.989Z,16.36
2018-04-14T09:32:37.930Z,16.26
2018-04-14T09:33:37.868Z,16.16
2018-04-14T09:34:37.809Z,16.18
2018-04-14T09:35:37.749Z,16.32
2018-04-14T09:36:37.689Z,16.22
2018-04-14T09:37:37.630Z,16.16
2018-04-14T09:38:37.572Z,16.21
2018-04-14T09:39:37.507Z,16.24
2018-04-14T09:40:37.450Z,16.26
2018-04-14T09:41:37.392Z,16.42
2018-04-14T09:42:37.332Z,16.59
2018-04-14T09:43:37.272Z,16.62
2018-04-14T09:44:37.212Z,16.70
2018-04-14T09:45:37.155Z,16.76
2018-04-14T09:46:37.091Z,16.83
2018-04-14T09:47:37.032Z,16.97
2018-04-14T09:48:36.972Z,17.07
2018-04-14T09:49:36.913Z,17.06
2018-04-14T09:50:36.853Z,17.22
2018-04-14T09:51:36.791Z,17.45
2018-04-14T09:52:36.736Z,17.32
2018-04-14T09:53:36.674Z,17.35
2018-04-14T09:54:36.613Z,17.39
2018-04-14T09:55:36.556Z,17.43
2018-04-14T09:56:36.496Z,17.41
2018-04-14T09:57:36.438Z,17.38
2018-04-14T09:58:36.380Z,17.39
2018-04-14T09:59:36.321Z,17.49
2018-04-14T10:00:36.259Z,17.75
2018-04-14T10:01:36.197Z,17.84
2018-04-14T10:02:36.138Z,17.84
2018-04-14T10:03:36.082Z,17.91
2018-04-14T10:04:36.023Z,17.93
2018-04-14T10:05:35.964Z,17.94
2018-04-14T10:06:35.905Z,18.06
2018-04-14T10:07:35.845Z,18.09
2018-04-14T10:08:35.786Z,18.12
2018-04-14T10:09:35.725Z,18.08
2018-04-14T10:10:35.718Z,18.02
2018-04-14T10:11:35.612Z,17.86
2018-04-14T10:12:35.552Z,17.75
2018-04-14T10:13:35.487Z,17.79
2018-04-14T10:14:35.433Z,17.83
2018-04-14T10:15:35.373Z,17.86
2018-04-14T10:16:35.314Z,17.84
2018-04-14T10:17:35.255Z,17.76
2018-04-14T10:18:35.198Z,17.63
2018-04-14T10:19:35.137Z,17.65
2018-04-14T10:20:35.079Z,17.52
2018-04-14T10:21:35.020Z,17.62
2018-04-14T10:22:34.961Z,17.84
2018-04-14T10:23:34.902Z,17.97
2018-04-14T10:24:34.842Z,18.03
2018-04-14T10:25:34.789Z,17.93
2018-04-14T10:26:34.733Z,17.84
2018-04-14T10:27:34.668Z,17.93
2018-04-14T10:28:34.618Z,17.93
2018-04-14T10:29:34.559Z,18.01
2018-04-14T10:30:34.491Z,18.01
2018-04-14T10:31:34.433Z,18.02
2018-04-14T10:32:34.376Z,18.01
2018-04-14T10:33:34.315Z,18.01
2018-04-14T10:34:34.257Z,18.06
2018-04-14T10:35:34.209Z,18.11
2018-04-14T10:36:34.138Z,18.20
2018-04-14T10:37:34.094Z,18.26
2018-04-14T10:38:34.021Z,18.28
2018-04-14T10:39:33.962Z,18.38
2018-04-14T10:40:33.912Z,18.46
2018-04-14T10:41:33.849Z,18.42
2018-04-14T10:42:33.787Z,18.39
2018-04-14T10:43:33.732Z,18.33
2018-04-14T10:44:33.671Z,18.36
2018-04-14T10:45:33.610Z,18.31
2018-04-14T10:46:33.556Z,18.52
2018-04-14T10:47:33.499Z,18.57
2018-04-14T10:48:33.439Z,18.66
2018-04-14T10:49:33.381Z,18.75
2018-04-14T10:50:33.321Z,18.76
2018-04-14T10:51:33.260Z,18.74
2018-04-14T10:52:33.217Z,18.74
2018-04-14T10:53:33.146Z,18.67
2018-04-14T10:54:33.085Z,18.61
2018-04-14T10:55:33.029Z,18.64
2018-04-14T10:56:32.971Z,18.57
2018-04-14T10:57:32.912Z,18.71
2018-04-14T10:58:32.855Z,18.82
2018-04-14T10:59:32.799Z,18.88
2018-04-14T11:00:32.741Z,18.97
2018-04-14T11:01:32.684Z,19.00
2018-04-14T11:02:32.623Z,19.13
2018-04-14T11:03:32.607Z,19.26
2018-04-14T11:04:32.509Z,19.19
2018-04-14T11:05:32.449Z,19.35
2018-04-14T11:06:32.391Z,19.26
2018-04-14T11:07:32.332Z,19.20
2018-04-14T11:08:32.275Z,19.05
2018-04-14T11:09:32.217Z,18.97
2018-04-14T11:10:32.158Z,18.94
2018-04-14T11:11:32.102Z,18.97
2018-04-14T11:12:32.056Z,18.89
2018-04-14T11:13:31.993Z,19.09
2018-04-14T11:14:31.930Z,19.07
2018-04-14T11:15:31.870Z,19.17
2018-04-14T11:16:31.812Z,19.19
2018-04-14T11:17:31.754Z,19.17
2018-04-14T11:18:31.698Z,19.20
2018-04-14T11:19:31.638Z,19.15
2018-04-14T11:20:31.621Z,18.97
2018-04-14T11:21:31.520Z,18.89
2018-04-14T11:22:31.467Z,18.88
2018-04-14T11:23:31.407Z,18.88
2018-04-14T11:24:31.350Z,18.75
2018-04-14T11:25:31.291Z,18.66
2018-04-14T11:26:31.236Z,18.45
2018-04-14T11:27:31.175Z,18.43
2018-04-14T11:28:31.116Z,18.39
2018-04-14T11:29:31.058Z,18.27
2018-04-14T11:30:30.999Z,18.28
2018-04-14T11:31:30.941Z,18.34
2018-04-14T11:32:30.887Z,18.43
2018-04-14T11:33:30.827Z,18.36
2018-04-14T11:34:30.769Z,18.41
2018-04-14T11:35:30.711Z,18.49
2018-04-14T11:36:30.656Z,18.58
2018-04-14T11:37:30.591Z,18.54
2018-04-14T11:38:30.538Z,18.52
2018-04-14T11:39:30.479Z,18.54
2018-04-14T11:40:30.420Z,18.60
2018-04-14T11:41:30.364Z,18.57
2018-04-14T11:42:30.314Z,18.70
2018-04-14T11:43:30.289Z,18.79
2018-04-14T11:44:30.190Z,18.86
2018-04-14T11:45:30.130Z,19.04
2018-04-14T11:46:30.083Z,19.15
2018-04-14T11:47:30.024Z,19.24
2018-04-14T11:48:29.956Z,19.27
2018-04-14T11:49:29.904Z,19.20
2018-04-14T11:50:29.839Z,19.16
2018-04-14T11:51:29.782Z,19.13
2018-04-14T11:52:29.764Z,19.01
2018-04-14T11:53:29.664Z,18.91
2018-04-14T11:54:29.607Z,18.91
2018-04-14T11:55:29.550Z,18.91
2018-04-14T11:56:29.505Z,18.88
2018-04-14T11:57:29.436Z,18.89
2018-04-14T11:58:29.373Z,18.75
2018-04-14T11:59:29.317Z,18.82
2018-04-14T12:00:29.259Z,18.67
2018-04-14T12:01:29.204Z,18.63
2018-04-14T12:02:29.144Z,18.61
2018-04-14T12:03:29.083Z,18.66
2018-04-14T12:04:29.029Z,18.76
2018-04-14T12:05:28.969Z,18.81
2018-04-14T12:06:28.932Z,18.79
2018-04-14T12:07:28.852Z,18.71
2018-04-14T12:08:28.792Z,18.74
2018-04-14T12:09:28.733Z,18.64
2018-04-14T12:10:28.675Z,18.63
2018-04-14T12:11:28.617Z,18.60
2018-04-14T12:12:28.561Z,18.49
2018-04-14T12:13:28.503Z,18.66
2018-04-14T12:14:28.444Z,18.76
2018-04-14T12:15:28.383Z,18.71
2018-04-14T12:16:28.328Z,18.74
2018-04-14T12:17:28.265Z,18.64
2018-04-14T12:18:28.221Z,18.63
2018-04-14T12:19:28.150Z,18.64
2018-04-14T12:20:28.094Z,18.64
2018-04-14T12:21:28.032Z,18.52
2018-04-14T12:22:27.981Z,18.46
2018-04-14T12:23:27.918Z,18.41
2018-04-14T12:24:27.879Z,18.34
2018-04-14T12:25:27.803Z,18.27
2018-04-14T12:26:27.740Z,18.27
2018-04-14T12:27:27.683Z,18.56
2018-04-14T12:28:27.624Z,18.67
2018-04-14T12:29:27.572Z,18.82
2018-04-14T12:30:27.518Z,18.79
2018-04-14T12:31:27.450Z,18.61
2018-04-14T12:32:27.393Z,18.51
2018-04-14T12:33:27.330Z,18.61
2018-04-14T12:34:27.274Z,18.66
2018-04-14T12:35:27.228Z,18.68
2018-04-14T12:36:27.157Z,18.71
2018-04-14T12:37:27.098Z,18.67
2018-04-14T12:38:27.045Z,18.71
2018-04-14T12:39:26.985Z,18.52
2018-04-14T12:40:26.925Z,18.56
2018-04-14T12:41:26.872Z,18.54
2018-04-14T12:42:26.804Z,18.63
2018-04-14T12:43:26.758Z,18.61
2018-04-14T12:44:26.684Z,18.70
2018-04-14T12:45:26.650Z,18.78
2018-04-14T12:46:26.568Z,18.89
2018-04-14T12:47:26.529Z,19.01
2018-04-14T12:48:26.449Z,19.07
2018-04-14T12:49:26.394Z,19.05
2018-04-14T12:50:26.335Z,19.04
2018-04-14T12:51:26.277Z,19.05
2018-04-14T12:52:26.217Z,19.07
2018-04-14T12:53:26.162Z,19.04
2018-04-14T12:54:26.128Z,19.05
2018-04-14T12:55:26.068Z,19.04
2018-04-14T12:56:25.989Z,19.05
2018-04-14T12:57:25.937Z,18.97
2018-04-14T12:58:25.865Z,18.97
2018-04-14T12:59:25.822Z,18.86
2018-04-14T13:00:25.754Z,18.81
2018-04-14T13:01:25.692Z,18.86
2018-04-14T13:02:25.634Z,18.88
2018-04-14T13:03:25.573Z,18.85
2018-04-14T13:04:25.516Z,18.86